Time;durP1;ratioP1;P1;durP2;ratioP2;P2;SDS_P1;SDS_P2;PMS_P1;PMS_P2;Temp;Humidity;BMP_temperature;BMP_pressure;BME280_temperature;BME280_humidity;BME280_pressure;Samples;Min_cycle;Max_cycle;Signal;HPM_P1;HPM_P2
2023/07/25 00:02:04;;;;;;;3.42;3.13;;;;;;;;;;5092308;28;20205;-83
2023/07/25 00:04:31;;;;;;;6.88;3.30;;;;;;;;;;5091588;28;20201;-83
2023/07/25 00:06:58;;;;;;;3.97;3.20;;;;;;;;;;5094191;28;20278;-83
2023/07/25 00:09:25;;;;;;;4.78;3.50;;;;;;;;;;5084936;28;20201;-83
2023/07/25 00:11:52;;;;;;;4.68;3.28;;;;;;;;;;5093644;28;20196;-82
2023/07/25 00:14:20;;;;;;;4.03;3.28;;;;;;;;;;5097249;28;20202;-82
2023/07/25 00:16:47;;;;;;;4.13;3.05;;;;;;;;;;5093352;28;20250;-83
2023/07/25 00:19:14;;;;;;;3.60;3.30;;;;;;;;;;5094563;28;20299;-81
2023/07/25 00:21:42;;;;;;;4.22;3.40;;;;;;;;;;5098387;28;20230;-83
2023/07/25 00:24:09;;;;;;;4.93;3.40;;;;;;;;;;5095465;28;20201;-82
2023/07/25 00:26:36;;;;;;;4.63;3.30;;;;;;;;;;5095171;28;20197;-80
2023/07/25 00:45:56;;;;;;;6.07;3.63;;;;;;;;;;5089513;28;20192;-82
2023/07/25 00:48:23;;;;;;;6.80;3.88;;;;;;;;;;5095700;28;20224;-80
2023/07/25 00:50:51;;;;;;;4.32;3.92;;;;;;;;;;5095131;28;20213;-83
2023/07/25 00:53:18;;;;;;;4.20;3.80;;;;;;;;;;5093534;28;20283;-83
2023/07/25 00:55:47;;;;;;;9.45;4.47;;;;;;;;;;5090138;28;20209;-80
2023/07/25 00:58:14;;;;;;;7.47;4.68;;;;;;;;;;5092039;28;20233;-82
2023/07/25 01:00:43;;;;;;;10.73;5.53;;;;;;;;;;5094889;28;20648;-83
2023/07/25 01:03:14;;;;;;;6.93;5.53;;;;;;;;;;5091983;28;20193;-82
2023/07/25 01:05:46;;;;;;;34.72;14.60;;;;;;;;;;5089898;28;20200;-83
2023/07/25 01:08:13;;;;;;;19.80;9.23;;;;;;;;;;5089088;28;20232;-83
2023/07/25 01:10:40;;;;;;;16.10;8.70;;;;;;;;;;5092449;28;20318;-83
2023/07/25 01:13:07;;;;;;;4.95;4.25;;;;;;;;;;5089982;28;20205;-83
2023/07/25 01:15:36;;;;;;;5.47;4.22;;;;;;;;;;5092834;28;20244;-82
2023/07/25 01:18:03;;;;;;;6.72;4.00;;;;;;;;;;5088663;28;20260;-82
2023/07/25 01:20:31;;;;;;;5.57;4.03;;;;;;;;;;5092824;28;20284;-83
2023/07/25 01:22:59;;;;;;;6.22;4.40;;;;;;;;;;5090810;28;20261;-83
2023/07/25 01:25:26;;;;;;;6.95;4.38;;;;;;;;;;5092780;28;20250;-82
2023/07/25 01:27:53;;;;;;;6.28;4.85;;;;;;;;;;5091337;28;20274;-81
2023/07/25 01:30:21;;;;;;;5.13;4.63;;;;;;;;;;5094151;28;20208;-82
2023/07/25 01:32:48;;;;;;;5.30;4.80;;;;;;;;;;5094046;28;20610;-81
2023/07/25 01:35:15;;;;;;;5.65;4.70;;;;;;;;;;5085540;28;20201;-83
2023/07/25 01:37:42;;;;;;;5.20;4.55;;;;;;;;;;5085861;28;20231;-82
2023/07/25 01:40:10;;;;;;;9.05;4.65;;;;;;;;;;5090251;28;20198;-82
2023/07/25 01:42:37;;;;;;;12.98;4.68;;;;;;;;;;5091289;28;20261;-82
2023/07/25 01:45:04;;;;;;;6.60;4.28;;;;;;;;;;5090229;28;20202;-83
2023/07/25 01:47:32;;;;;;;4.68;4.25;;;;;;;;;;5086391;28;20244;-81
2023/07/25 01:49:59;;;;;;;5.55;4.97;;;;;;;;;;5093568;28;20197;-83
2023/07/25 01:52:26;;;;;;;7.20;5.15;;;;;;;;;;5087018;28;20201;-82
2023/07/25 01:54:54;;;;;;;5.50;5.00;;;;;;;;;;5090842;28;20283;-82
2023/07/25 01:57:21;;;;;;;4.97;4.47;;;;;;;;;;5088515;28;20278;-82
2023/07/25 01:59:49;;;;;;;6.43;4.40;;;;;;;;;;5089983;28;20231;-82
2023/07/25 02:02:16;;;;;;;7.05;4.75;;;;;;;;;;5085534;28;20232;-82
2023/07/25 02:04:44;;;;;;;6.85;4.68;;;;;;;;;;5088480;28;20676;-83
2023/07/25 02:07:11;;;;;;;7.10;4.72;;;;;;;;;;5096588;28;20226;-82
2023/07/25 02:09:38;;;;;;;5.60;4.68;;;;;;;;;;5099645;28;20530;-82
2023/07/25 02:12:06;;;;;;;5.32;4.70;;;;;;;;;;5107814;28;20246;-82
2023/07/25 02:14:33;;;;;;;5.38;4.88;;;;;;;;;;5099248;28;20231;-82
2023/07/25 02:17:01;;;;;;;5.15;4.70;;;;;;;;;;5097364;28;20217;-83
2023/07/25 02:19:28;;;;;;;7.13;5.20;;;;;;;;;;5099520;28;20208;-80
2023/07/25 02:21:55;;;;;;;5.65;5.00;;;;;;;;;;5099404;28;20247;-82
2023/07/25 02:24:22;;;;;;;6.10;5.50;;;;;;;;;;5097632;28;20252;-83
2023/07/25 02:26:50;;;;;;;6.28;5.68;;;;;;;;;;5093091;28;20271;-82
2023/07/25 02:29:17;;;;;;;6.30;5.18;;;;;;;;;;5089090;28;20210;-84
2023/07/25 02:31:45;;;;;;;5.80;5.30;;;;;;;;;;5094167;28;20213;-83
2023/07/25 02:34:12;;;;;;;6.78;6.07;;;;;;;;;;5092124;28;20239;-82
2023/07/25 02:36:39;;;;;;;5.97;5.38;;;;;;;;;;5087187;28;20269;-83
2023/07/25 02:39:06;;;;;;;6.03;5.43;;;;;;;;;;5094054;28;20220;-80
2023/07/25 02:41:33;;;;;;;7.82;5.80;;;;;;;;;;5090380;28;20201;-82
2023/07/25 02:44:00;;;;;;;6.30;5.70;;;;;;;;;;5094397;28;20201;-83
2023/07/25 02:46:27;;;;;;;6.00;5.22;;;;;;;;;;5091396;28;20193;-81
2023/07/25 02:48:55;;;;;;;6.35;5.75;;;;;;;;;;5092568;28;20659;-83
2023/07/25 02:51:22;;;;;;;6.85;5.45;;;;;;;;;;5088425;28;20201;-83
2023/07/25 02:53:49;;;;;;;6.38;5.30;;;;;;;;;;5093884;28;20209;-83
2023/07/25 02:56:16;;;;;;;6.07;5.50;;;;;;;;;;5086568;28;20283;-80
2023/07/25 02:58:44;;;;;;;6.22;5.60;;;;;;;;;;5092132;28;21106;-82
2023/07/25 03:01:11;;;;;;;7.10;6.15;;;;;;;;;;5091527;28;20193;-83
2023/07/25 03:03:38;;;;;;;7.95;7.05;;;;;;;;;;5091157;28;20789;-83
2023/07/25 03:06:05;;;;;;;12.93;8.25;;;;;;;;;;5089492;28;20204;-82
2023/07/25 03:08:32;;;;;;;11.90;9.18;;;;;;;;;;5088532;28;20221;-83
2023/07/25 03:11:00;;;;;;;12.73;10.23;;;;;;;;;;5088175;28;20209;-83
2023/07/25 03:13:27;;;;;;;11.55;9.35;;;;;;;;;;5075208;22;20229;-65
2023/07/25 03:15:55;;;;;;;11.48;9.02;;;;;;;;;;5050427;28;20281;-65
2023/07/25 03:18:23;;;;;;;10.65;9.18;;;;;;;;;;5055346;28;20229;-65
2023/07/25 03:20:51;;;;;;;12.73;9.23;;;;;;;;;;5051639;28;20572;-65
2023/07/25 03:23:19;;;;;;;13.10;10.02;;;;;;;;;;5048309;28;20285;-63
2023/07/25 03:25:50;;;;;;;12.90;9.93;;;;;;;;;;5059580;28;20229;-66
2023/07/25 03:28:19;;;;;;;12.48;9.80;;;;;;;;;;5051932;28;20229;-64
2023/07/25 03:30:47;;;;;;;14.98;10.02;;;;;;;;;;5052131;28;20206;-66
2023/07/25 03:33:16;;;;;;;11.82;9.77;;;;;;;;;;5054556;28;20618;-63
2023/07/25 03:35:44;;;;;;;16.48;10.20;;;;;;;;;;5062303;28;20261;-62
2023/07/25 03:38:14;;;;;;;16.40;11.95;;;;;;;;;;5060104;28;20222;-65
2023/07/25 03:40:43;;;;;;;15.52;10.32;;;;;;;;;;5057349;28;20200;-65
2023/07/25 03:43:18;;;;;;;14.40;10.50;;;;;;;;;;5060803;28;20198;-61
2023/07/25 03:45:49;;;;;;;16.92;10.73;;;;;;;;;;5059743;28;20202;-63
2023/07/25 03:48:25;;;;;;;14.70;10.55;;;;;;;;;;5059519;28;20202;-62
2023/07/25 03:51:03;;;;;;;14.23;10.55;;;;;;;;;;5061706;28;20706;-67
2023/07/25 03:53:35;;;;;;;24.58;11.60;;;;;;;;;;5062283;28;20202;-63
2023/07/25 03:56:07;;;;;;;15.00;10.55;;;;;;;;;;5059232;28;20233;-62
2023/07/25 03:58:43;;;;;;;18.95;9.95;;;;;;;;;;5059086;28;20222;-62
2023/07/25 04:01:18;;;;;;;12.57;10.82;;;;;;;;;;5060018;28;20202;-63
2023/07/25 04:03:51;;;;;;;11.52;9.32;;;;;;;;;;5062924;28;20206;-63
2023/07/25 04:06:23;;;;;;;11.77;8.90;;;;;;;;;;5061377;28;20225;-63
2023/07/25 04:08:57;;;;;;;11.63;9.27;;;;;;;;;;5062335;28;20217;-63
2023/07/25 04:11:31;;;;;;;11.88;8.55;;;;;;;;;;5066027;28;20205;-62
2023/07/25 04:14:10;;;;;;;10.55;8.98;;;;;;;;;;5060849;28;20229;-62
2023/07/25 04:16:40;;;;;;;10.35;8.90;;;;;;;;;;5062691;28;20218;-62
2023/07/25 04:19:23;;;;;;;13.25;10.25;;;;;;;;;;5059135;28;20230;-63
2023/07/25 04:22:00;;;;;;;9.70;8.50;;;;;;;;;;5060063;28;20211;-63
2023/07/25 04:24:30;;;;;;;11.43;8.68;;;;;;;;;;5062087;28;20444;-63
2023/07/25 04:27:08;;;;;;;11.25;9.40;;;;;;;;;;5061087;28;20218;-62
2023/07/25 04:29:50;;;;;;;11.07;9.23;;;;;;;;;;5058074;28;20212;-64
2023/07/25 04:32:23;;;;;;;12.52;9.07;;;;;;;;;;5062726;28;20208;-67
2023/07/25 04:34:51;;;;;;;12.07;8.68;;;;;;;;;;5063970;28;20221;-64
2023/07/25 04:37:28;;;;;;;11.25;8.52;;;;;;;;;;5059143;28;20306;-63
2023/07/25 04:40:00;;;;;;;8.85;7.43;;;;;;;;;;5061073;28;20792;-63
2023/07/25 04:42:31;;;;;;;10.40;8.07;;;;;;;;;;5059397;28;20280;-62
2023/07/25 04:45:00;;;;;;;9.75;8.35;;;;;;;;;;5051801;28;20198;-62
2023/07/25 04:47:28;;;;;;;9.05;7.93;;;;;;;;;;5048752;28;20237;-64
2023/07/25 04:49:56;;;;;;;11.57;8.77;;;;;;;;;;5048709;28;20233;-63
2023/07/25 04:52:26;;;;;;;9.00;8.10;;;;;;;;;;5053655;28;20202;-64
2023/07/25 04:55:02;;;;;;;9.13;8.23;;;;;;;;;;5053780;28;20271;-65
2023/07/25 04:57:31;;;;;;;11.80;7.80;;;;;;;;;;5057028;28;20226;-64
2023/07/25 05:00:01;;;;;;;9.80;8.02;;;;;;;;;;5052920;28;20233;-62
2023/07/25 05:02:31;;;;;;;10.15;8.35;;;;;;;;;;5052488;28;20256;-63
2023/07/25 05:05:00;;;;;;;11.35;8.63;;;;;;;;;;5048180;28;20275;-62
2023/07/25 05:07:29;;;;;;;13.60;9.40;;;;;;;;;;5052260;28;20737;-62
2023/07/25 05:10:00;;;;;;;9.85;8.82;;;;;;;;;;5057312;28;20210;-66
2023/07/25 05:12:29;;;;;;;9.73;8.82;;;;;;;;;;5051206;28;20229;-64
2023/07/25 05:14:57;;;;;;;9.65;8.60;;;;;;;;;;5050013;28;20209;-62
2023/07/25 05:17:26;;;;;;;9.68;8.13;;;;;;;;;;5052751;28;20316;-62
2023/07/25 05:19:55;;;;;;;7.60;6.80;;;;;;;;;;5051628;28;20333;-63
2023/07/25 05:22:27;;;;;;;8.73;7.82;;;;;;;;;;5055073;28;20233;-63
2023/07/25 05:24:56;;;;;;;8.65;7.75;;;;;;;;;;5056472;28;20233;-63
2023/07/25 05:27:24;;;;;;;8.98;7.45;;;;;;;;;;5055465;28;20222;-63
2023/07/25 05:29:55;;;;;;;7.90;7.10;;;;;;;;;;5030384;28;20206;-63
2023/07/25 05:32:26;;;;;;;11.98;8.00;;;;;;;;;;5052684;28;20293;-62
2023/07/25 05:34:55;;;;;;;10.80;8.68;;;;;;;;;;5056813;28;20214;-62
2023/07/25 05:37:35;;;;;;;17.25;8.80;;;;;;;;;;5055152;28;20241;-62
2023/07/25 05:40:13;;;;;;;4.97;3.42;;;;;;;;;;5051450;28;20234;-63
2023/07/25 05:42:42;;;;;;;2.95;2.40;;;;;;;;;;5056677;28;20209;-62
2023/07/25 05:45:11;;;;;;;5.78;2.58;;;;;;;;;;5053036;28;20194;-64
2023/07/25 05:47:51;;;;;;;3.80;2.40;;;;;;;;;;5054053;28;20252;-61
2023/07/25 05:50:27;;;;;;;2.40;2.20;;;;;;;;;;5038190;28;20260;-62
2023/07/25 05:53:08;;;;;;;4.00;2.20;;;;;;;;;;5038779;28;20229;-62
2023/07/25 05:55:58;;;;;;;2.17;1.98;;;;;;;;;;5036207;28;20209;-62
2023/07/25 05:58:31;;;;;;;2.92;2.63;;;;;;;;;;5057223;28;20202;-62
2023/07/25 06:01:05;;;;;;;2.70;2.05;;;;;;;;;;5047674;28;20281;-63
2023/07/25 06:03:48;;;;;;;5.43;2.00;;;;;;;;;;5058089;28;20221;-64
2023/07/25 06:06:17;;;;;;;2.42;2.10;;;;;;;;;;5056184;28;20536;-63
2023/07/25 06:08:53;;;;;;;2.13;2.00;;;;;;;;;;5053334;28;20234;-63
2023/07/25 06:11:27;;;;;;;2.63;2.20;;;;;;;;;;5037561;28;20248;-63
2023/07/25 06:14:01;;;;;;;2.15;1.95;;;;;;;;;;5037022;28;20209;-63
2023/07/25 06:16:30;;;;;;;2.08;1.98;;;;;;;;;;5034079;28;20284;-63
2023/07/25 06:19:03;;;;;;;2.10;1.90;;;;;;;;;;5036197;28;20329;-63
2023/07/25 06:21:32;;;;;;;2.85;1.92;;;;;;;;;;5054325;28;20198;-63
2023/07/25 06:24:02;;;;;;;4.10;1.98;;;;;;;;;;5055339;28;20202;-63
2023/07/25 06:26:33;;;;;;;3.78;2.58;;;;;;;;;;5038258;28;20222;-63
2023/07/25 06:29:05;;;;;;;5.45;3.20;;;;;;;;;;5052502;28;20206;-63
2023/07/25 06:31:36;;;;;;;2.80;2.35;;;;;;;;;;5043061;28;20209;-63
2023/07/25 06:34:13;;;;;;;3.65;2.55;;;;;;;;;;5060651;28;20198;-63
2023/07/25 06:36:44;;;;;;;2.30;2.10;;;;;;;;;;5061707;28;20226;-62
2023/07/25 06:39:27;;;;;;;2.00;1.90;;;;;;;;;;5059350;28;20264;-62
2023/07/25 06:42:07;;;;;;;2.95;2.28;;;;;;;;;;5057706;28;20594;-62
2023/07/25 06:44:40;;;;;;;2.28;2.03;;;;;;;;;;5057719;28;20195;-63
2023/07/25 06:47:10;;;;;;;2.75;2.10;;;;;;;;;;5051656;28;20225;-63
2023/07/25 06:49:41;;;;;;;2.33;2.10;;;;;;;;;;5050933;28;20684;-63
2023/07/25 06:52:18;;;;;;;4.45;1.95;;;;;;;;;;5051752;28;20204;-63
2023/07/25 06:54:49;;;;;;;2.47;2.05;;;;;;;;;;5032702;28;20202;-64
2023/07/25 06:57:19;;;;;;;2.15;1.80;;;;;;;;;;5048993;28;20252;-62
2023/07/25 06:59:55;;;;;;;2.53;2.28;;;;;;;;;;5034588;28;20304;-63
2023/07/25 07:02:33;;;;;;;2.00;1.77;;;;;;;;;;5052729;28;20215;-63
2023/07/25 07:05:08;;;;;;;4.22;2.05;;;;;;;;;;5033005;28;20213;-63
2023/07/25 07:08:01;;;;;;;2.78;2.03;;;;;;;;;;5051459;28;20218;-63
2023/07/25 07:10:39;;;;;;;2.25;2.05;;;;;;;;;;5055491;28;20261;-63
2023/07/25 07:13:11;;;;;;;2.47;2.28;;;;;;;;;;5051387;28;20253;-63
2023/07/25 07:15:51;;;;;;;3.35;2.47;;;;;;;;;;5040920;28;20210;-63
2023/07/25 07:18:23;;;;;;;2.72;2.53;;;;;;;;;;5052203;28;20679;-63
2023/07/25 07:20:57;;;;;;;3.38;2.80;;;;;;;;;;5035376;28;20296;-63
2023/07/25 07:23:30;;;;;;;2.83;2.47;;;;;;;;;;5048358;28;20234;-62
2023/07/25 07:25:59;;;;;;;3.28;2.92;;;;;;;;;;5050159;28;20207;-63
2023/07/25 07:28:29;;;;;;;3.88;3.47;;;;;;;;;;5053006;28;20264;-63
2023/07/25 07:30:59;;;;;;;4.28;3.35;;;;;;;;;;5056009;28;20240;-63
2023/07/25 07:33:30;;;;;;;4.90;3.30;;;;;;;;;;5053650;28;20310;-63
2023/07/25 07:36:06;;;;;;;3.83;3.40;;;;;;;;;;5055802;28;20210;-63
2023/07/25 07:38:34;;;;;;;4.13;3.72;;;;;;;;;;5054381;28;20205;-62
2023/07/25 07:41:04;;;;;;;5.25;3.63;;;;;;;;;;5053164;28;20221;-63
2023/07/25 07:43:33;;;;;;;4.00;3.40;;;;;;;;;;5051985;28;20294;-63
2023/07/25 07:46:04;;;;;;;4.18;3.45;;;;;;;;;;5057396;28;20256;-62
2023/07/25 07:48:37;;;;;;;4.00;3.55;;;;;;;;;;5043877;28;20289;-63
2023/07/25 07:51:07;;;;;;;3.35;3.05;;;;;;;;;;5056303;28;20210;-64
2023/07/25 07:53:38;;;;;;;4.20;3.72;;;;;;;;;;5062021;28;20221;-63
2023/07/25 07:56:08;;;;;;;3.45;3.15;;;;;;;;;;5061479;28;20226;-63
2023/07/25 07:58:37;;;;;;;4.22;3.72;;;;;;;;;;5060153;28;20203;-63
2023/07/25 08:01:17;;;;;;;5.78;4.18;;;;;;;;;;5053546;28;20238;-63
2023/07/25 08:06:41;;;;;;;6.88;5.25;;;;;;;;;;5035456;28;20317;-63
2023/07/25 08:09:24;;;;;;;3.80;3.50;;;;;;;;;;5055572;28;20202;-62
2023/07/25 08:11:53;;;;;;;4.90;3.88;;;;;;;;;;5051829;28;20214;-62
2023/07/25 08:14:22;;;;;;;4.65;3.72;;;;;;;;;;5039626;28;20194;-64
2023/07/25 08:16:54;;;;;;;7.63;4.10;;;;;;;;;;5051731;28;20223;-62
2023/07/25 08:19:24;;;;;;;6.97;4.85;;;;;;;;;;5049013;28;20317;-63
2023/07/25 08:21:55;;;;;;;4.25;3.85;;;;;;;;;;5042998;28;20194;-63
2023/07/25 08:24:28;;;;;;;6.28;4.00;;;;;;;;;;5042318;28;20209;-63
2023/07/25 08:26:58;;;;;;;5.00;3.85;;;;;;;;;;5057830;28;20415;-63
2023/07/25 08:29:27;;;;;;;3.30;3.00;;;;;;;;;;5057873;28;20237;-62
2023/07/25 08:31:57;;;;;;;4.45;2.50;;;;;;;;;;5055205;28;20227;-63
2023/07/25 08:34:29;;;;;;;2.97;2.60;;;;;;;;;;5061041;28;20210;-63
2023/07/25 08:37:02;;;;;;;3.67;2.38;;;;;;;;;;5063014;28;20222;-64
2023/07/25 08:39:32;;;;;;;2.70;2.50;;;;;;;;;;5059624;28;20222;-63
2023/07/25 08:42:03;;;;;;;4.40;2.50;;;;;;;;;;5055414;28;20230;-63
2023/07/25 08:44:34;;;;;;;2.90;2.55;;;;;;;;;;5058700;28;20206;-63
2023/07/25 08:47:17;;;;;;;3.85;2.53;;;;;;;;;;5058758;28;20244;-62
2023/07/25 08:49:53;;;;;;;5.75;4.25;;;;;;;;;;5060603;28;20280;-63
2023/07/25 08:52:24;;;;;;;2.85;2.13;;;;;;;;;;5058963;28;20209;-62
2023/07/25 08:54:56;;;;;;;4.30;3.10;;;;;;;;;;5046830;28;20645;-63
2023/07/25 08:57:26;;;;;;;2.00;1.77;;;;;;;;;;5048058;28;20880;-65
2023/07/25 08:59:55;;;;;;;2.35;2.00;;;;;;;;;;5050162;28;20224;-62
2023/07/25 09:02:24;;;;;;;1.98;1.60;;;;;;;;;;5048816;28;20230;-63
2023/07/25 09:04:56;;;;;;;4.70;3.38;;;;;;;;;;5050024;28;20214;-64
2023/07/25 09:07:27;;;;;;;3.33;2.00;;;;;;;;;;5035493;28;20220;-63
2023/07/25 09:09:55;;;;;;;2.10;1.90;;;;;;;;;;5059041;28;20207;-63
2023/07/25 09:12:28;;;;;;;3.63;2.90;;;;;;;;;;5054073;28;20283;-63
2023/07/25 09:15:06;;;;;;;3.38;2.00;;;;;;;;;;5041686;28;20206;-63
2023/07/25 09:17:35;;;;;;;1.65;1.52;;;;;;;;;;5059288;28;20224;-63
2023/07/25 09:20:05;;;;;;;1.77;1.45;;;;;;;;;;5066966;28;20716;-64
2023/07/25 09:22:35;;;;;;;1.70;1.38;;;;;;;;;;5057489;28;20651;-63
2023/07/25 09:25:11;;;;;;;1.77;1.30;;;;;;;;;;5055473;28;20252;-63
2023/07/25 09:27:49;;;;;;;1.55;1.45;;;;;;;;;;5061274;28;20261;-63
2023/07/25 09:30:21;;;;;;;2.55;1.50;;;;;;;;;;5053693;28;20210;-63
2023/07/25 09:32:55;;;;;;;2.60;2.40;;;;;;;;;;5066650;28;20210;-63
2023/07/25 09:35:35;;;;;;;2.08;1.98;;;;;;;;;;5065127;28;20198;-63
2023/07/25 09:38:10;;;;;;;2.72;2.20;;;;;;;;;;5065875;28;20222;-63
2023/07/25 09:40:51;;;;;;;1.75;1.52;;;;;;;;;;5061294;28;20228;-64
2023/07/25 09:43:26;;;;;;;2.33;1.73;;;;;;;;;;5057451;28;20229;-65
2023/07/25 09:45:58;;;;;;;1.67;1.58;;;;;;;;;;5053540;28;20197;-64
2023/07/25 09:48:30;;;;;;;1.92;1.48;;;;;;;;;;5025628;28;20212;-65
2023/07/25 09:51:02;;;;;;;4.30;2.10;;;;;;;;;;5055990;28;20307;-65
2023/07/25 09:53:32;;;;;;;8.23;5.45;;;;;;;;;;5052198;28;20202;-64
2023/07/25 09:56:01;;;;;;;2.13;1.70;;;;;;;;;;5032246;28;20229;-65
2023/07/25 09:58:31;;;;;;;2.78;1.83;;;;;;;;;;5054218;28;20202;-65
2023/07/25 10:01:00;;;;;;;2.30;1.95;;;;;;;;;;5053454;28;20229;-62
2023/07/25 10:03:32;;;;;;;2.00;1.90;;;;;;;;;;5056978;28;20237;-65
2023/07/25 10:06:04;;;;;;;2.03;1.88;;;;;;;;;;5061449;28;20206;-64
2023/07/25 10:08:45;;;;;;;3.22;1.90;;;;;;;;;;5052269;28;20221;-63
2023/07/25 10:11:18;;;;;;;2.40;1.73;;;;;;;;;;5057216;28;20239;-63
2023/07/25 10:13:54;;;;;;;4.03;1.90;;;;;;;;;;5036752;28;20277;-63
2023/07/25 10:16:29;;;;;;;2.55;1.80;;;;;;;;;;5060224;28;20222;-63
2023/07/25 10:19:18;;;;;;;3.63;1.85;;;;;;;;;;5056042;28;20249;-64
2023/07/25 10:21:51;;;;;;;2.38;1.85;;;;;;;;;;5057128;28;20214;-63
2023/07/25 10:24:21;;;;;;;3.00;1.70;;;;;;;;;;5056934;28;20229;-63
2023/07/25 10:27:15;;;;;;;2.53;1.70;;;;;;;;;;5053881;28;20217;-63
2023/07/25 10:29:47;;;;;;;1.98;1.73;;;;;;;;;;5060116;28;20206;-63
2023/07/25 10:32:50;;;;;;;3.95;1.88;;;;;;;;;;5042009;28;20206;-63
2023/07/25 10:35:41;;;;;;;6.43;1.98;;;;;;;;;;5060043;28;20202;-63
2023/07/25 10:38:18;;;;;;;1.80;1.70;;;;;;;;;;5057761;28;20194;-63
2023/07/25 10:41:06;;;;;;;3.00;1.73;;;;;;;;;;5058238;28;20217;-63
2023/07/25 10:43:55;;;;;;;2.63;1.55;;;;;;;;;;5056230;28;20232;-64
2023/07/25 10:46:31;;;;;;;1.85;1.50;;;;;;;;;;5055776;28;20218;-63
2023/07/25 10:49:02;;;;;;;2.97;1.60;;;;;;;;;;5059840;28;20241;-63
2023/07/25 10:52:02;;;;;;;1.95;1.80;;;;;;;;;;5036251;28;20278;-63
2023/07/25 10:54:32;;;;;;;4.78;1.98;;;;;;;;;;5043824;28;20222;-63
2023/07/25 10:57:17;;;;;;;2.70;1.77;;;;;;;;;;5065942;28;20232;-64
2023/07/25 11:00:04;;;;;;;2.47;1.73;;;;;;;;;;5061984;28;20689;-62
2023/07/25 11:02:34;;;;;;;2.50;1.65;;;;;;;;;;5046616;28;20209;-64
2023/07/25 11:05:17;;;;;;;3.53;1.73;;;;;;;;;;5047353;28;20206;-64
2023/07/25 11:07:46;;;;;;;2.83;1.75;;;;;;;;;;5049223;28;20222;-64
2023/07/25 11:10:21;;;;;;;1.80;1.60;;;;;;;;;;5050337;28;20198;-64
2023/07/25 11:12:51;;;;;;;2.75;1.50;;;;;;;;;;5050963;28;20248;-64
2023/07/25 11:15:19;;;;;;;1.40;1.30;;;;;;;;;;5048714;28;20209;-64
2023/07/25 11:18:09;;;;;;;1.55;1.23;;;;;;;;;;5061610;28;20229;-64
2023/07/25 11:20:42;;;;;;;1.40;1.30;;;;;;;;;;5056327;28;20214;-65
2023/07/25 11:23:24;;;;;;;2.53;1.50;;;;;;;;;;5053257;28;20666;-64
2023/07/25 11:25:54;;;;;;;3.38;1.50;;;;;;;;;;5056668;28;20198;-64
2023/07/25 11:28:23;;;;;;;1.98;1.40;;;;;;;;;;5056928;28;20204;-64
2023/07/25 11:30:58;;;;;;;1.95;1.23;;;;;;;;;;5053938;28;20213;-63
2023/07/25 11:33:30;;;;;;;1.50;1.40;;;;;;;;;;5053723;28;20259;-63
2023/07/25 11:36:08;;;;;;;2.72;1.30;;;;;;;;;;5054330;28;20256;-65
2023/07/25 11:38:39;;;;;;;1.70;1.40;;;;;;;;;;5057247;28;20280;-63
2023/07/25 11:41:11;;;;;;;2.25;1.20;;;;;;;;;;5060429;28;20237;-64
2023/07/25 11:43:43;;;;;;;1.50;1.40;;;;;;;;;;5055720;28;20719;-64
2023/07/25 11:46:19;;;;;;;2.08;1.10;;;;;;;;;;5059689;28;20265;-64
2023/07/25 11:48:50;;;;;;;2.10;1.20;;;;;;;;;;5057819;28;20654;-65
2023/07/25 11:51:21;;;;;;;1.65;1.30;;;;;;;;;;5029213;28;20206;-64
2023/07/25 11:53:50;;;;;;;2.25;0.98;;;;;;;;;;5040071;28;20213;-64
2023/07/25 11:56:20;;;;;;;4.03;2.00;;;;;;;;;;5044062;28;20237;-64
2023/07/25 11:58:52;;;;;;;12.90;5.70;;;;;;;;;;5060243;28;20229;-64
2023/07/25 12:01:26;;;;;;;7.50;4.05;;;;;;;;;;5065204;28;20233;-64
2023/07/25 12:03:56;;;;;;;4.15;1.75;;;;;;;;;;5038945;28;20198;-64
2023/07/25 12:06:43;;;;;;;2.50;1.30;;;;;;;;;;5060198;28;20310;-64
2023/07/25 12:09:27;;;;;;;1.77;1.40;;;;;;;;;;5061455;28;20206;-64
2023/07/25 12:11:57;;;;;;;1.80;1.55;;;;;;;;;;5042743;28;20214;-63
2023/07/25 12:14:26;;;;;;;3.58;1.63;;;;;;;;;;5061067;28;20511;-64
2023/07/25 12:17:03;;;;;;;3.33;1.63;;;;;;;;;;5064996;28;20254;-63
2023/07/25 12:19:34;;;;;;;1.70;1.60;;;;;;;;;;5063911;28;20206;-64
2023/07/25 12:22:07;;;;;;;2.83;1.52;;;;;;;;;;5061333;28;20210;-64
2023/07/25 12:24:41;;;;;;;1.30;1.20;;;;;;;;;;5042252;28;20223;-63
2023/07/25 12:27:39;;;;;;;1.65;1.27;;;;;;;;;;5059447;28;20405;-64
2023/07/25 12:30:09;;;;;;;1.73;1.33;;;;;;;;;;5049831;28;20221;-64
2023/07/25 12:32:39;;;;;;;1.88;1.15;;;;;;;;;;5061982;28;20218;-64
2023/07/25 12:35:11;;;;;;;1.27;1.17;;;;;;;;;;5046897;28;20261;-64
2023/07/25 12:37:41;;;;;;;1.88;1.40;;;;;;;;;;5063799;28;20229;-64
2023/07/25 12:40:10;;;;;;;2.85;2.00;;;;;;;;;;5064498;28;20198;-65
2023/07/25 12:42:38;;;;;;;1.20;1.10;;;;;;;;;;5043851;28;20289;-63
2023/07/25 12:45:08;;;;;;;1.27;1.17;;;;;;;;;;5061032;28;20221;-63
2023/07/25 12:47:38;;;;;;;1.83;1.30;;;;;;;;;;5059876;28;20234;-63
2023/07/25 12:50:12;;;;;;;1.17;1.10;;;;;;;;;;5066294;28;20194;-64
2023/07/25 12:52:55;;;;;;;1.70;1.45;;;;;;;;;;5065438;28;20197;-63
2023/07/25 12:55:33;;;;;;;2.58;2.38;;;;;;;;;;5049742;28;20240;-63
2023/07/25 12:58:36;;;;;;;2.35;1.58;;;;;;;;;;5055585;28;20232;-64
2023/07/25 13:01:05;;;;;;;2.33;1.58;;;;;;;;;;5056416;28;20232;-64
2023/07/25 13:03:43;;;;;;;2.05;1.50;;;;;;;;;;5060934;28;20262;-63
2023/07/25 13:06:12;;;;;;;1.45;1.30;;;;;;;;;;5062636;28;20218;-64
2023/07/25 13:08:44;;;;;;;2.00;1.17;;;;;;;;;;5050276;28;20285;-63
2023/07/25 13:11:15;;;;;;;2.30;1.40;;;;;;;;;;5049496;28;20271;-64
2023/07/25 13:13:44;;;;;;;1.30;1.20;;;;;;;;;;5036179;28;20249;-64
2023/07/25 13:16:13;;;;;;;1.98;1.40;;;;;;;;;;5037903;28;20753;-64
2023/07/25 13:18:42;;;;;;;2.67;1.60;;;;;;;;;;5047891;28;20207;-64
2023/07/25 13:21:11;;;;;;;2.72;1.35;;;;;;;;;;5046685;28;20770;-64
2023/07/25 13:23:40;;;;;;;1.35;1.30;;;;;;;;;;5052933;28;20210;-64
2023/07/25 13:26:13;;;;;;;4.70;3.10;;;;;;;;;;5048160;28;20287;-63
2023/07/25 13:28:42;;;;;;;1.80;1.50;;;;;;;;;;5054905;28;20232;-64
2023/07/25 13:31:39;;;;;;;2.88;1.65;;;;;;;;;;5033308;28;20293;-63
2023/07/25 13:34:12;;;;;;;4.38;1.80;;;;;;;;;;5043847;28;20210;-63
2023/07/25 13:36:42;;;;;;;4.45;2.30;;;;;;;;;;5054890;28;20224;-64
2023/07/25 13:39:12;;;;;;;2.33;1.50;;;;;;;;;;5054060;28;20198;-65
2023/07/25 13:41:41;;;;;;;4.78;1.67;;;;;;;;;;5055334;28;20230;-64
2023/07/25 13:44:10;;;;;;;4.35;1.33;;;;;;;;;;5055815;28;20206;-63
2023/07/25 13:46:38;;;;;;;8.98;5.53;;;;;;;;;;5046376;28;20218;-63
2023/07/25 13:49:16;;;;;;;3.75;1.77;;;;;;;;;;5052242;28;20202;-63
2023/07/25 13:51:50;;;;;;;7.28;4.03;;;;;;;;;;5058166;28;20319;-64
2023/07/25 13:54:22;;;;;;;2.60;1.70;;;;;;;;;;5055913;28;20292;-64
2023/07/25 13:56:51;;;;;;;1.92;1.77;;;;;;;;;;5054427;28;20226;-64
2023/07/25 13:59:20;;;;;;;2.83;1.70;;;;;;;;;;5059213;28;20273;-64
2023/07/25 14:01:58;;;;;;;1.87;1.77;;;;;;;;;;5039247;28;20230;-64
2023/07/25 14:04:29;;;;;;;2.88;1.88;;;;;;;;;;5036994;28;20198;-63
2023/07/25 14:07:02;;;;;;;1.60;1.50;;;;;;;;;;5057930;28;20225;-63
2023/07/25 14:09:30;;;;;;;1.92;1.83;;;;;;;;;;5053044;28;20685;-63
2023/07/25 14:12:03;;;;;;;5.45;3.20;;;;;;;;;;5040444;28;20222;-64
2023/07/25 14:14:35;;;;;;;1.67;1.50;;;;;;;;;;5051256;28;20210;-63
2023/07/25 14:17:32;;;;;;;2.30;1.88;;;;;;;;;;5037989;28;20333;-63
2023/07/25 14:20:04;;;;;;;2.03;1.83;;;;;;;;;;5063706;28;20633;-63
2023/07/25 14:22:37;;;;;;;3.22;1.67;;;;;;;;;;5058692;28;20249;-64
2023/07/25 14:25:05;;;;;;;1.88;1.73;;;;;;;;;;5031449;28;20208;-63
2023/07/25 14:27:37;;;;;;;1.40;1.23;;;;;;;;;;5056814;28;20297;-64
2023/07/25 14:30:12;;;;;;;1.80;1.40;;;;;;;;;;5060534;28;20262;-64
2023/07/25 14:32:43;;;;;;;1.63;1.40;;;;;;;;;;5056350;28;20220;-63
2023/07/25 14:35:14;;;;;;;1.25;1.20;;;;;;;;;;5059939;28;20198;-64
2023/07/25 14:37:42;;;;;;;1.02;1.02;;;;;;;;;;5039583;28;20280;-64
2023/07/25 14:40:19;;;;;;;1.40;1.30;;;;;;;;;;5055036;28;20207;-63
2023/07/25 14:42:48;;;;;;;1.98;1.35;;;;;;;;;;5038991;28;20237;-64
2023/07/25 14:45:16;;;;;;;1.60;1.50;;;;;;;;;;5059195;28;20273;-64
2023/07/25 14:47:51;;;;;;;1.95;1.23;;;;;;;;;;5046514;28;20229;-64
2023/07/25 14:50:23;;;;;;;2.03;1.30;;;;;;;;;;5057578;28;20202;-64
2023/07/25 14:52:55;;;;;;;1.40;1.30;;;;;;;;;;5059120;28;20206;-64
2023/07/25 14:55:23;;;;;;;1.35;1.25;;;;;;;;;;5058466;28;20202;-63
2023/07/25 14:57:54;;;;;;;1.30;1.30;;;;;;;;;;5061181;28;20312;-64
2023/07/25 15:00:24;;;;;;;1.10;1.10;;;;;;;;;;5061072;28;20210;-63
2023/07/25 15:02:54;;;;;;;2.05;1.10;;;;;;;;;;5055022;28;20273;-63
2023/07/25 15:05:24;;;;;;;1.33;1.00;;;;;;;;;;5058696;28;20198;-64
2023/07/25 15:07:55;;;;;;;0.93;0.93;;;;;;;;;;5056494;28;20246;-65
2023/07/25 15:10:29;;;;;;;1.65;1.00;;;;;;;;;;5032407;28;20672;-65
2023/07/25 15:12:58;;;;;;;0.90;0.90;;;;;;;;;;5050031;28;20214;-64
2023/07/25 15:15:27;;;;;;;1.23;1.10;;;;;;;;;;5047449;28;20209;-64
2023/07/25 15:17:56;;;;;;;1.50;1.00;;;;;;;;;;5045469;28;20228;-65
2023/07/25 15:20:26;;;;;;;1.08;1.00;;;;;;;;;;5051368;28;20215;-65
2023/07/25 15:22:56;;;;;;;1.00;1.00;;;;;;;;;;5054200;28;20256;-64
2023/07/25 15:25:32;;;;;;;1.00;1.00;;;;;;;;;;5051134;28;20194;-64
2023/07/25 15:28:08;;;;;;;1.00;1.00;;;;;;;;;;5047140;28;20294;-64
2023/07/25 15:30:42;;;;;;;1.30;1.20;;;;;;;;;;5054692;28;20267;-64